sensor_id;sensor_type;location;lat;lon;timestamp;P1;P2;P0
77320;PMS7003;66382;52.252;8.780;2023-04-06T00:00:55;19.00;19.00;15.00
77320;PMS7003;66382;52.252;8.780;2023-04-06T00:03:21;20.50;20.50;14.00
77320;PMS7003;66382;52.252;8.780;2023-04-06T00:05:47;23.00;23.00;16.00
77320;PMS7003;66382;52.252;8.780;2023-04-06T00:08:13;19.25;19.25;15.00
77320;PMS7003;66382;52.252;8.780;2023-04-06T00:10:40;22.00;22.00;16.00
77320;PMS7003;66382;52.252;8.780;2023-04-06T00:13:06;25.00;24.50;16.75
77320;PMS7003;66382;52.252;8.780;2023-04-06T00:15:32;20.00;20.00;16.00
77320;PMS7003;66382;52.252;8.780;2023-04-06T00:17:58;19.75;19.75;16.00
77320;PMS7003;66382;52.252;8.780;2023-04-06T00:20:24;23.00;23.00;17.00
77320;PMS7003;66382;52.252;8.780;2023-04-06T00:22:50;22.25;22.25;17.00
77320;PMS7003;66382;52.252;8.780;2023-04-06T00:25:16;23.00;23.00;17.25
77320;PMS7003;66382;52.252;8.780;2023-04-06T00:27:43;18.00;18.00;15.25
77320;PMS7003;66382;52.252;8.780;2023-04-06T00:30:09;21.00;19.00;15.75
77320;PMS7003;66382;52.252;8.780;2023-04-06T00:32:35;21.75;21.75;16.75
77320;PMS7003;66382;52.252;8.780;2023-04-06T00:35:01;23.50;22.50;18.25
77320;PMS7003;66382;52.252;8.780;2023-04-06T00:37:28;18.25;18.25;13.50
77320;PMS7003;66382;52.252;8.780;2023-04-06T00:39:53;20.00;20.00;15.00
77320;PMS7003;66382;52.252;8.780;2023-04-06T00:42:19;23.00;23.00;16.50
77320;PMS7003;66382;52.252;8.780;2023-04-06T00:44:48;15.75;15.75;15.00
77320;PMS7003;66382;52.252;8.780;2023-04-06T00:47:13;22.75;22.75;19.00
77320;PMS7003;66382;52.252;8.780;2023-04-06T00:49:39;14.50;14.50;12.75
77320;PMS7003;66382;52.252;8.780;2023-04-06T00:52:05;21.75;21.75;18.00
77320;PMS7003;66382;52.252;8.780;2023-04-06T00:54:31;20.50;20.50;16.25
77320;PMS7003;66382;52.252;8.780;2023-04-06T00:56:56;18.50;18.50;14.25
77320;PMS7003;66382;52.252;8.780;2023-04-06T00:59:23;21.75;20.50;16.50
77320;PMS7003;66382;52.252;8.780;2023-04-06T01:01:50;21.00;21.00;16.50
77320;PMS7003;66382;52.252;8.780;2023-04-06T01:04:16;21.00;21.00;19.00
77320;PMS7003;66382;52.252;8.780;2023-04-06T01:06:41;21.50;20.50;15.25
77320;PMS7003;66382;52.252;8.780;2023-04-06T01:09:07;22.50;22.50;17.50
77320;PMS7003;66382;52.252;8.780;2023-04-06T01:11:33;20.25;20.25;15.75
77320;PMS7003;66382;52.252;8.780;2023-04-06T01:14:00;26.00;26.00;19.25
77320;PMS7003;66382;52.252;8.780;2023-04-06T01:16:26;23.75;23.75;16.25
77320;PMS7003;66382;52.252;8.780;2023-04-06T01:18:53;24.00;24.00;17.00
77320;PMS7003;66382;52.252;8.780;2023-04-06T01:21:19;22.00;22.00;17.75
77320;PMS7003;66382;52.252;8.780;2023-04-06T01:23:46;20.75;20.75;15.25
77320;PMS7003;66382;52.252;8.780;2023-04-06T01:26:12;23.25;22.50;18.75
77320;PMS7003;66382;52.252;8.780;2023-04-06T01:28:38;22.00;22.00;16.75
77320;PMS7003;66382;52.252;8.780;2023-04-06T01:31:05;25.50;25.50;18.25
77320;PMS7003;66382;52.252;8.780;2023-04-06T01:33:31;21.50;21.50;17.50
77320;PMS7003;66382;52.252;8.780;2023-04-06T01:35:56;23.75;23.25;17.25
77320;PMS7003;66382;52.252;8.780;2023-04-06T01:38:22;22.50;22.50;18.25
77320;PMS7003;66382;52.252;8.780;2023-04-06T01:40:49;26.00;26.00;16.75
77320;PMS7003;66382;52.252;8.780;2023-04-06T01:43:15;23.75;23.75;17.75
77320;PMS7003;66382;52.252;8.780;2023-04-06T01:45:41;25.75;25.75;19.00
77320;PMS7003;66382;52.252;8.780;2023-04-06T01:48:07;22.50;22.50;17.25
77320;PMS7003;66382;52.252;8.780;2023-04-06T01:50:32;23.00;23.00;17.25
77320;PMS7003;66382;52.252;8.780;2023-04-06T01:52:58;22.25;22.25;16.50
77320;PMS7003;66382;52.252;8.780;2023-04-06T01:55:24;23.75;23.75;18.50
77320;PMS7003;66382;52.252;8.780;2023-04-06T01:57:51;28.00;27.00;19.50
77320;PMS7003;66382;52.252;8.780;2023-04-06T02:00:17;27.50;27.50;19.00
77320;PMS7003;66382;52.252;8.780;2023-04-06T02:02:43;24.00;24.00;18.00
77320;PMS7003;66382;52.252;8.780;2023-04-06T02:05:09;29.00;29.00;19.75
77320;PMS7003;66382;52.252;8.780;2023-04-06T02:07:34;30.75;30.75;19.00
77320;PMS7003;66382;52.252;8.780;2023-04-06T02:10:00;27.50;27.50;19.50
77320;PMS7003;66382;52.252;8.780;2023-04-06T02:12:26;28.00;28.00;19.00
77320;PMS7003;66382;52.252;8.780;2023-04-06T02:14:53;28.25;28.25;21.75
77320;PMS7003;66382;52.252;8.780;2023-04-06T02:17:19;27.75;27.75;20.00
77320;PMS7003;66382;52.252;8.780;2023-04-06T02:19:45;23.50;23.50;18.75
77320;PMS7003;66382;52.252;8.780;2023-04-06T02:22:10;27.00;27.00;18.50
77320;PMS7003;66382;52.252;8.780;2023-04-06T02:24:36;23.75;23.25;16.00
77320;PMS7003;66382;52.252;8.780;2023-04-06T02:27:02;24.25;24.25;18.25
77320;PMS7003;66382;52.252;8.780;2023-04-06T02:29:28;19.75;19.75;13.50
77320;PMS7003;66382;52.252;8.780;2023-04-06T02:31:55;27.25;27.25;18.00
77320;PMS7003;66382;52.252;8.780;2023-04-06T02:34:21;30.75;30.75;19.25
77320;PMS7003;66382;52.252;8.780;2023-04-06T02:36:47;29.75;29.75;23.00
77320;PMS7003;66382;52.252;8.780;2023-04-06T02:39:12;28.25;27.75;19.00
77320;PMS7003;66382;52.252;8.780;2023-04-06T02:41:39;27.75;27.75;22.25
77320;PMS7003;66382;52.252;8.780;2023-04-06T02:44:05;32.50;29.50;18.00
77320;PMS7003;66382;52.252;8.780;2023-04-06T02:46:32;36.50;35.50;22.50
77320;PMS7003;66382;52.252;8.780;2023-04-06T02:48:59;29.75;29.75;22.00
77320;PMS7003;66382;52.252;8.780;2023-04-06T02:51:25;31.50;31.50;22.00
77320;PMS7003;66382;52.252;8.780;2023-04-06T02:53:51;32.25;31.25;23.75
77320;PMS7003;66382;52.252;8.780;2023-04-06T02:56:17;28.00;28.00;20.75
77320;PMS7003;66382;52.252;8.780;2023-04-06T02:58:43;26.50;26.50;20.25
77320;PMS7003;66382;52.252;8.780;2023-04-06T03:01:08;32.25;31.00;22.00
77320;PMS7003;66382;52.252;8.780;2023-04-06T03:03:34;32.75;32.75;23.25
77320;PMS7003;66382;52.252;8.780;2023-04-06T03:06:01;35.50;34.25;22.75
77320;PMS7003;66382;52.252;8.780;2023-04-06T03:08:27;31.00;31.00;25.00
77320;PMS7003;66382;52.252;8.780;2023-04-06T03:10:53;27.25;27.25;22.25
77320;PMS7003;66382;52.252;8.780;2023-04-06T03:13:19;30.75;30.75;22.00
77320;PMS7003;66382;52.252;8.780;2023-04-06T03:15:45;27.25;27.25;22.75
77320;PMS7003;66382;52.252;8.780;2023-04-06T03:18:11;29.75;29.75;21.00
77320;PMS7003;66382;52.252;8.780;2023-04-06T03:20:37;30.75;30.75;21.25
77320;PMS7003;66382;52.252;8.780;2023-04-06T03:23:04;32.00;32.00;21.00
77320;PMS7003;66382;52.252;8.780;2023-04-06T03:25:30;30.50;30.50;22.25
77320;PMS7003;66382;52.252;8.780;2023-04-06T03:27:55;32.50;31.50;22.25
77320;PMS7003;66382;52.252;8.780;2023-04-06T03:30:21;29.75;29.75;21.50
77320;PMS7003;66382;52.252;8.780;2023-04-06T03:32:47;29.00;29.00;22.50
77320;PMS7003;66382;52.252;8.780;2023-04-06T03:35:13;27.00;27.00;20.00
77320;PMS7003;66382;52.252;8.780;2023-04-06T03:37:38;35.25;35.25;25.00
77320;PMS7003;66382;52.252;8.780;2023-04-06T03:40:06;37.00;36.25;27.25
77320;PMS7003;66382;52.252;8.780;2023-04-06T03:42:32;40.00;39.00;27.00
77320;PMS7003;66382;52.252;8.780;2023-04-06T03:44:58;40.00;39.00;25.00
77320;PMS7003;66382;52.252;8.780;2023-04-06T03:47:24;34.00;34.00;25.25
77320;PMS7003;66382;52.252;8.780;2023-04-06T03:49:50;25.75;25.25;22.25
77320;PMS7003;66382;52.252;8.780;2023-04-06T03:52:15;34.75;34.75;23.00
77320;PMS7003;66382;52.252;8.780;2023-04-06T03:54:41;35.50;35.00;25.00
77320;PMS7003;66382;52.252;8.780;2023-04-06T03:57:08;32.50;32.50;23.50
77320;PMS7003;66382;52.252;8.780;2023-04-06T03:59:34;37.25;36.00;25.00
77320;PMS7003;66382;52.252;8.780;2023-04-06T04:02:00;32.25;30.50;24.00
77320;PMS7003;66382;52.252;8.780;2023-04-06T04:04:26;33.25;33.25;22.25
77320;PMS7003;66382;52.252;8.780;2023-04-06T04:06:51;31.25;31.25;23.00
77320;PMS7003;66382;52.252;8.780;2023-04-06T04:09:17;29.25;26.25;20.00
77320;PMS7003;66382;52.252;8.780;2023-04-06T04:11:43;26.25;26.00;20.25
77320;PMS7003;66382;52.252;8.780;2023-04-06T04:14:10;28.25;28.25;20.50
77320;PMS7003;66382;52.252;8.780;2023-04-06T04:16:36;32.25;31.50;21.75
77320;PMS7003;66382;52.252;8.780;2023-04-06T04:19:02;25.75;25.75;20.25
77320;PMS7003;66382;52.252;8.780;2023-04-06T04:21:29;29.50;26.50;17.50
77320;PMS7003;66382;52.252;8.780;2023-04-06T04:23:55;25.25;25.00;17.50
77320;PMS7003;66382;52.252;8.780;2023-04-06T04:26:21;29.25;27.25;19.00
77320;PMS7003;66382;52.252;8.780;2023-04-06T04:28:47;24.75;24.75;18.50
77320;PMS7003;66382;52.252;8.780;2023-04-06T04:31:14;26.50;26.50;22.75
77320;PMS7003;66382;52.252;8.780;2023-04-06T04:33:39;22.00;22.00;15.50
77320;PMS7003;66382;52.252;8.780;2023-04-06T04:36:05;23.50;23.50;17.50
77320;PMS7003;66382;52.252;8.780;2023-04-06T04:38:32;24.75;24.75;19.25
77320;PMS7003;66382;52.252;8.780;2023-04-06T04:40:57;25.75;25.25;18.25
77320;PMS7003;66382;52.252;8.780;2023-04-06T04:43:23;27.50;27.50;21.00
77320;PMS7003;66382;52.252;8.780;2023-04-06T04:45:49;26.75;26.75;20.00
77320;PMS7003;66382;52.252;8.780;2023-04-06T04:48:16;26.75;26.75;20.25
77320;PMS7003;66382;52.252;8.780;2023-04-06T04:50:42;31.75;30.25;20.75
77320;PMS7003;66382;52.252;8.780;2023-04-06T04:53:07;23.75;23.75;18.25
77320;PMS7003;66382;52.252;8.780;2023-04-06T04:55:33;25.25;25.25;18.25
77320;PMS7003;66382;52.252;8.780;2023-04-06T04:57:59;24.75;24.75;19.00
77320;PMS7003;66382;52.252;8.780;2023-04-06T05:00:25;19.75;19.75;14.25
77320;PMS7003;66382;52.252;8.780;2023-04-06T05:02:50;26.75;26.00;20.75
77320;PMS7003;66382;52.252;8.780;2023-04-06T05:05:17;24.25;24.25;16.75
77320;PMS7003;66382;52.252;8.780;2023-04-06T05:07:43;25.75;25.75;19.00
77320;PMS7003;66382;52.252;8.780;2023-04-06T05:10:09;24.75;24.75;16.75
77320;PMS7003;66382;52.252;8.780;2023-04-06T05:12:35;24.25;24.25;19.00
77320;PMS7003;66382;52.252;8.780;2023-04-06T05:15:02;24.75;24.50;14.50
77320;PMS7003;66382;52.252;8.780;2023-04-06T05:17:29;20.50;19.75;16.50
77320;PMS7003;66382;52.252;8.780;2023-04-06T05:19:55;20.00;20.00;15.50
77320;PMS7003;66382;52.252;8.780;2023-04-06T05:22:22;23.50;23.50;16.25
77320;PMS7003;66382;52.252;8.780;2023-04-06T05:24:48;21.75;21.75;17.75
77320;PMS7003;66382;52.252;8.780;2023-04-06T05:27:14;19.75;19.75;17.00
77320;PMS7003;66382;52.252;8.780;2023-04-06T05:29:39;22.50;22.50;15.75
77320;PMS7003;66382;52.252;8.780;2023-04-06T05:32:05;22.75;22.75;17.00
77320;PMS7003;66382;52.252;8.780;2023-04-06T05:34:31;24.25;24.25;18.75
77320;PMS7003;66382;52.252;8.780;2023-04-06T05:36:57;23.50;23.50;18.50
77320;PMS7003;66382;52.252;8.780;2023-04-06T05:39:24;24.00;24.00;17.50
77320;PMS7003;66382;52.252;8.780;2023-04-06T05:41:50;19.00;19.00;14.00
77320;PMS7003;66382;52.252;8.780;2023-04-06T05:44:16;17.00;17.00;15.25
77320;PMS7003;66382;52.252;8.780;2023-04-06T05:46:41;19.50;19.50;15.75
77320;PMS7003;66382;52.252;8.780;2023-04-06T05:49:07;16.50;16.50;13.00
77320;PMS7003;66382;52.252;8.780;2023-04-06T05:51:33;20.50;20.50;15.75
77320;PMS7003;66382;52.252;8.780;2023-04-06T05:53:59;19.25;19.25;15.00
77320;PMS7003;66382;52.252;8.780;2023-04-06T05:56:26;22.00;22.00;17.00
77320;PMS7003;66382;52.252;8.780;2023-04-06T05:58:52;20.25;20.25;16.50
77320;PMS7003;66382;52.252;8.780;2023-04-06T06:01:17;24.00;24.00;17.50
77320;PMS7003;66382;52.252;8.780;2023-04-06T06:03:43;22.25;22.25;17.50
77320;PMS7003;66382;52.252;8.780;2023-04-06T06:06:09;22.75;21.25;16.00
77320;PMS7003;66382;52.252;8.780;2023-04-06T06:08:35;23.00;22.00;16.25
77320;PMS7003;66382;52.252;8.780;2023-04-06T06:11:01;21.75;21.75;16.75
77320;PMS7003;66382;52.252;8.780;2023-04-06T06:13:28;18.25;18.25;15.00
77320;PMS7003;66382;52.252;8.780;2023-04-06T06:15:54;21.75;21.75;16.00
77320;PMS7003;66382;52.252;8.780;2023-04-06T06:18:20;23.25;23.25;19.50
77320;PMS7003;66382;52.252;8.780;2023-04-06T06:20:45;17.00;17.00;13.25
77320;PMS7003;66382;52.252;8.780;2023-04-06T06:23:11;19.50;19.50;16.00
77320;PMS7003;66382;52.252;8.780;2023-04-06T06:25:37;25.75;25.75;19.00
77320;PMS7003;66382;52.252;8.780;2023-04-06T06:28:03;23.25;23.25;17.50
77320;PMS7003;66382;52.252;8.780;2023-04-06T06:30:30;21.75;21.75;16.25
77320;PMS7003;66382;52.252;8.780;2023-04-06T06:32:56;23.25;23.25;18.25
77320;PMS7003;66382;52.252;8.780;2023-04-06T06:35:21;21.75;21.75;16.00
77320;PMS7003;66382;52.252;8.780;2023-04-06T06:37:47;21.00;20.00;15.00
77320;PMS7003;66382;52.252;8.780;2023-04-06T06:40:13;17.75;17.75;14.50
77320;PMS7003;66382;52.252;8.780;2023-04-06T06:42:39;22.00;22.00;16.75
77320;PMS7003;66382;52.252;8.780;2023-04-06T06:45:05;21.75;21.75;15.75
77320;PMS7003;66382;52.252;8.780;2023-04-06T06:47:33;20.50;20.50;17.00
77320;PMS7003;66382;52.252;8.780;2023-04-06T06:49:59;22.75;22.75;16.00
77320;PMS7003;66382;52.252;8.780;2023-04-06T06:52:25;20.50;20.50;15.00
77320;PMS7003;66382;52.252;8.780;2023-04-06T06:54:50;19.50;19.50;14.50
77320;PMS7003;66382;52.252;8.780;2023-04-06T06:57:16;19.50;19.50;15.25
77320;PMS7003;66382;52.252;8.780;2023-04-06T06:59:42;19.75;19.75;15.00
77320;PMS7003;66382;52.252;8.780;2023-04-06T07:02:08;17.75;17.75;13.75
77320;PMS7003;66382;52.252;8.780;2023-04-06T07:04:35;20.00;20.00;14.75
77320;PMS7003;66382;52.252;8.780;2023-04-06T07:07:01;21.25;21.25;17.75
77320;PMS7003;66382;52.252;8.780;2023-04-06T07:09:26;20.25;20.25;16.50
77320;PMS7003;66382;52.252;8.780;2023-04-06T07:11:52;22.75;22.75;16.75
77320;PMS7003;66382;52.252;8.780;2023-04-06T07:14:18;21.50;21.50;17.25
77320;PMS7003;66382;52.252;8.780;2023-04-06T07:16:44;20.25;20.25;17.50
77320;PMS7003;66382;52.252;8.780;2023-04-06T07:19:10;20.00;20.00;16.00
77320;PMS7003;66382;52.252;8.780;2023-04-06T07:21:37;20.50;20.50;16.50
77320;PMS7003;66382;52.252;8.780;2023-04-06T07:24:03;21.75;21.25;16.25
77320;PMS7003;66382;52.252;8.780;2023-04-06T07:26:29;17.50;17.50;14.75
77320;PMS7003;66382;52.252;8.780;2023-04-06T07:28:54;21.75;21.75;17.75
77320;PMS7003;66382;52.252;8.780;2023-04-06T07:31:20;22.25;21.75;16.25
77320;PMS7003;66382;52.252;8.780;2023-04-06T07:33:46;18.67;18.67;16.00
77320;PMS7003;66382;52.252;8.780;2023-04-06T07:36:12;17.67;17.67;15.00
77320;PMS7003;66382;52.252;8.780;2023-04-06T07:38:39;15.67;15.67;11.33
77320;PMS7003;66382;52.252;8.780;2023-04-06T07:41:05;18.33;18.33;15.67
77320;PMS7003;66382;52.252;8.780;2023-04-06T07:43:30;19.67;19.67;17.33
77320;PMS7003;66382;52.252;8.780;2023-04-06T07:45:56;19.67;19.67;15.33
77320;PMS7003;66382;52.252;8.780;2023-04-06T07:48:22;20.33;20.33;14.67
77320;PMS7003;66382;52.252;8.780;2023-04-06T07:50:48;18.67;18.67;15.00
77320;PMS7003;66382;52.252;8.780;2023-04-06T07:53:14;20.33;20.00;15.00
77320;PMS7003;66382;52.252;8.780;2023-04-06T07:55:41;20.33;20.33;16.00
77320;PMS7003;66382;52.252;8.780;2023-04-06T07:58:07;19.00;19.00;14.25
77320;PMS7003;66382;52.252;8.780;2023-04-06T08:00:32;19.33;19.33;15.00
77320;PMS7003;66382;52.252;8.780;2023-04-06T08:02:58;18.33;18.33;15.33
77320;PMS7003;66382;52.252;8.780;2023-04-06T08:05:24;17.33;17.33;14.67
77320;PMS7003;66382;52.252;8.780;2023-04-06T08:07:50;19.25;19.25;15.25
77320;PMS7003;66382;52.252;8.780;2023-04-06T08:10:16;18.67;18.67;15.67
77320;PMS7003;66382;52.252;8.780;2023-04-06T08:12:43;18.67;18.67;15.33
77320;PMS7003;66382;52.252;8.780;2023-04-06T08:15:09;19.00;19.00;15.75
77320;PMS7003;66382;52.252;8.780;2023-04-06T08:17:35;20.00;20.00;15.75
77320;PMS7003;66382;52.252;8.780;2023-04-06T08:20:01;20.33;18.67;14.00
77320;PMS7003;66382;52.252;8.780;2023-04-06T08:22:27;16.00;16.00;12.33
77320;PMS7003;66382;52.252;8.780;2023-04-06T08:24:52;21.00;21.00;14.33
77320;PMS7003;66382;52.252;8.780;2023-04-06T08:27:18;18.33;18.33;13.67
77320;PMS7003;66382;52.252;8.780;2023-04-06T08:29:45;23.33;23.00;16.33
77320;PMS7003;66382;52.252;8.780;2023-04-06T08:32:11;19.25;19.25;16.25
77320;PMS7003;66382;52.252;8.780;2023-04-06T08:34:37;20.00;20.00;15.00
77320;PMS7003;66382;52.252;8.780;2023-04-06T08:37:03;21.00;21.00;15.67
77320;PMS7003;66382;52.252;8.780;2023-04-06T08:39:28;18.00;18.00;14.33
77320;PMS7003;66382;52.252;8.780;2023-04-06T08:41:54;19.33;17.67;13.33
77320;PMS7003;66382;52.252;8.780;2023-04-06T08:44:20;18.67;18.67;15.33
77320;PMS7003;66382;52.252;8.780;2023-04-06T08:46:47;19.67;19.00;16.00
77320;PMS7003;66382;52.252;8.780;2023-04-06T08:49:13;20.50;20.50;14.50
77320;PMS7003;66382;52.252;8.780;2023-04-06T08:51:41;18.75;18.75;15.25
77320;PMS7003;66382;52.252;8.780;2023-04-06T08:54:07;17.00;17.00;14.75
77320;PMS7003;66382;52.252;8.780;2023-04-06T08:56:35;22.00;22.00;17.00
77320;PMS7003;66382;52.252;8.780;2023-04-06T08:59:03;18.75;18.75;14.75
77320;PMS7003;66382;52.252;8.780;2023-04-06T09:01:29;23.50;21.25;16.50
77320;PMS7003;66382;52.252;8.780;2023-04-06T09:04:00;18.50;18.50;14.25
77320;PMS7003;66382;52.252;8.780;2023-04-06T09:06:26;21.75;21.75;16.75
77320;PMS7003;66382;52.252;8.780;2023-04-06T09:08:52;17.50;17.50;14.75
77320;PMS7003;66382;52.252;8.780;2023-04-06T09:11:18;18.00;18.00;15.50
77320;PMS7003;66382;52.252;8.780;2023-04-06T09:13:45;19.75;19.75;14.25
77320;PMS7003;66382;52.252;8.780;2023-04-06T09:16:11;20.25;20.25;15.75
77320;PMS7003;66382;52.252;8.780;2023-04-06T09:18:37;20.33;20.33;15.67
77320;PMS7003;66382;52.252;8.780;2023-04-06T09:21:05;16.00;16.00;13.33
77320;PMS7003;66382;52.252;8.780;2023-04-06T09:23:32;18.00;18.00;15.50
77320;PMS7003;66382;52.252;8.780;2023-04-06T09:26:04;18.25;18.25;13.25
77320;PMS7003;66382;52.252;8.780;2023-04-06T09:28:40;16.75;16.75;14.00
77320;PMS7003;66382;52.252;8.780;2023-04-06T09:31:07;22.00;22.00;17.25
77320;PMS7003;66382;52.252;8.780;2023-04-06T09:33:33;19.33;19.33;17.00
77320;PMS7003;66382;52.252;8.780;2023-04-06T09:35:58;19.67;19.67;13.33
77320;PMS7003;66382;52.252;8.780;2023-04-06T09:38:25;15.33;15.33;12.00
77320;PMS7003;66382;52.252;8.780;2023-04-06T09:40:51;16.75;16.75;13.75
77320;PMS7003;66382;52.252;8.780;2023-04-06T09:43:23;16.00;16.00;11.33
77320;PMS7003;66382;52.252;8.780;2023-04-06T09:45:49;17.00;17.00;13.00
77320;PMS7003;66382;52.252;8.780;2023-04-06T09:48:15;16.00;16.00;11.67
77320;PMS7003;66382;52.252;8.780;2023-04-06T09:50:41;14.50;14.50;10.75
77320;PMS7003;66382;52.252;8.780;2023-04-06T09:53:08;19.50;19.50;15.25
77320;PMS7003;66382;52.252;8.780;2023-04-06T09:55:36;18.75;18.75;15.00
77320;PMS7003;66382;52.252;8.780;2023-04-06T09:58:09;20.50;19.50;15.00
77320;PMS7003;66382;52.252;8.780;2023-04-06T10:00:40;21.00;21.00;16.00
77320;PMS7003;66382;52.252;8.780;2023-04-06T10:03:14;18.00;18.00;15.00
77320;PMS7003;66382;52.252;8.780;2023-04-06T10:05:46;16.75;16.75;13.50
77320;PMS7003;66382;52.252;8.780;2023-04-06T10:08:15;18.50;18.50;15.25
77320;PMS7003;66382;52.252;8.780;2023-04-06T10:10:44;18.75;18.75;14.75
77320;PMS7003;66382;52.252;8.780;2023-04-06T10:13:11;20.00;20.00;15.00
77320;PMS7003;66382;52.252;8.780;2023-04-06T10:15:37;15.33;15.33;11.33
77320;PMS7003;66382;52.252;8.780;2023-04-06T10:18:04;17.50;17.50;13.75
77320;PMS7003;66382;52.252;8.780;2023-04-06T10:20:31;20.00;20.00;14.75
77320;PMS7003;66382;52.252;8.780;2023-04-06T10:23:01;16.00;16.00;13.50
77320;PMS7003;66382;52.252;8.780;2023-04-06T10:25:33;19.50;19.50;15.00
77320;PMS7003;66382;52.252;8.780;2023-04-06T10:28:01;19.75;19.75;15.25
77320;PMS7003;66382;52.252;8.780;2023-04-06T10:30:30;19.50;19.50;15.00
77320;PMS7003;66382;52.252;8.780;2023-04-06T10:32:57;21.75;21.75;16.50
77320;PMS7003;66382;52.252;8.780;2023-04-06T10:35:23;23.00;23.00;17.00
77320;PMS7003;66382;52.252;8.780;2023-04-06T10:37:49;21.67;21.67;14.67
77320;PMS7003;66382;52.252;8.780;2023-04-06T10:40:23;20.50;20.50;16.00
77320;PMS7003;66382;52.252;8.780;2023-04-06T10:42:50;15.00;15.00;11.00
77320;PMS7003;66382;52.252;8.780;2023-04-06T10:45:21;20.33;20.33;16.00
77320;PMS7003;66382;52.252;8.780;2023-04-06T10:47:48;16.75;16.75;12.25
77320;PMS7003;66382;52.252;8.780;2023-04-06T10:50:14;18.33;18.33;13.33
77320;PMS7003;66382;52.252;8.780;2023-04-06T10:52:41;9.75;9.00;7.00
77320;PMS7003;66382;52.252;8.780;2023-04-06T10:55:08;21.00;21.00;15.00
77320;PMS7003;66382;52.252;8.780;2023-04-06T10:57:34;22.00;22.00;18.00
77320;PMS7003;66382;52.252;8.780;2023-04-06T11:00:00;20.67;20.67;16.33
77320;PMS7003;66382;52.252;8.780;2023-04-06T11:02:27;23.00;23.00;15.33
77320;PMS7003;66382;52.252;8.780;2023-04-06T11:04:54;25.67;25.67;19.00
77320;PMS7003;66382;52.252;8.780;2023-04-06T11:07:22;18.33;18.33;11.00
77320;PMS7003;66382;52.252;8.780;2023-04-06T11:09:49;21.50;21.50;15.00
77320;PMS7003;66382;52.252;8.780;2023-04-06T11:12:20;25.00;25.00;18.67
77320;PMS7003;66382;52.252;8.780;2023-04-06T11:14:52;19.50;19.50;16.00
77320;PMS7003;66382;52.252;8.780;2023-04-06T11:17:24;21.67;21.67;15.00
77320;PMS7003;66382;52.252;8.780;2023-04-06T11:19:52;25.00;23.33;19.33
77320;PMS7003;66382;52.252;8.780;2023-04-06T11:22:18;24.00;24.00;19.00
77320;PMS7003;66382;52.252;8.780;2023-04-06T11:24:44;19.33;19.00;14.00
77320;PMS7003;66382;52.252;8.780;2023-04-06T11:27:10;27.33;26.67;14.33
77320;PMS7003;66382;52.252;8.780;2023-04-06T11:29:36;23.00;23.00;18.00
77320;PMS7003;66382;52.252;8.780;2023-04-06T11:32:03;22.33;22.33;17.33
77320;PMS7003;66382;52.252;8.780;2023-04-06T11:34:30;23.67;23.67;18.33
77320;PMS7003;66382;52.252;8.780;2023-04-06T11:36:59;24.33;22.67;17.33
77320;PMS7003;66382;52.252;8.780;2023-04-06T11:39:27;27.67;27.67;19.00
77320;PMS7003;66382;52.252;8.780;2023-04-06T11:41:54;24.67;24.67;19.00
77320;PMS7003;66382;52.252;8.780;2023-04-06T11:44:31;22.33;22.33;15.67
77320;PMS7003;66382;52.252;8.780;2023-04-06T11:46:58;20.67;20.67;15.00
77320;PMS7003;66382;52.252;8.780;2023-04-06T11:49:26;23.00;23.00;18.00
77320;PMS7003;66382;52.252;8.780;2023-04-06T11:51:52;24.00;24.00;18.00
77320;PMS7003;66382;52.252;8.780;2023-04-06T11:54:19;20.00;20.00;13.67
77320;PMS7003;66382;52.252;8.780;2023-04-06T11:56:55;24.33;24.33;18.00
77320;PMS7003;66382;52.252;8.780;2023-04-06T11:59:20;25.00;25.00;19.33
77320;PMS7003;66382;52.252;8.780;2023-04-06T12:01:47;26.00;26.00;19.00
77320;PMS7003;66382;52.252;8.780;2023-04-06T12:04:13;25.33;25.33;18.67
77320;PMS7003;66382;52.252;8.780;2023-04-06T12:06:38;25.33;25.33;17.67
77320;PMS7003;66382;52.252;8.780;2023-04-06T12:09:04;24.00;24.00;17.33
77320;PMS7003;66382;52.252;8.780;2023-04-06T12:11:31;26.67;26.00;18.67
77320;PMS7003;66382;52.252;8.780;2023-04-06T12:13:57;25.00;24.67;17.33
77320;PMS7003;66382;52.252;8.780;2023-04-06T12:16:23;27.33;27.33;19.67
77320;PMS7003;66382;52.252;8.780;2023-04-06T12:18:49;26.00;26.00;18.67
77320;PMS7003;66382;52.252;8.780;2023-04-06T12:21:14;27.00;27.00;21.00
77320;PMS7003;66382;52.252;8.780;2023-04-06T12:23:40;29.00;29.00;22.33
77320;PMS7003;66382;52.252;8.780;2023-04-06T12:26:06;28.33;28.33;21.00
77320;PMS7003;66382;52.252;8.780;2023-04-06T12:28:33;23.33;23.33;19.00
77320;PMS7003;66382;52.252;8.780;2023-04-06T12:30:59;30.33;30.33;20.67
77320;PMS7003;66382;52.252;8.780;2023-04-06T12:33:25;29.33;29.33;20.00
77320;PMS7003;66382;52.252;8.780;2023-04-06T12:35:51;28.67;28.67;20.00
77320;PMS7003;66382;52.252;8.780;2023-04-06T12:38:16;23.33;23.33;18.33
77320;PMS7003;66382;52.252;8.780;2023-04-06T12:40:42;27.67;27.67;20.00
77320;PMS7003;66382;52.252;8.780;2023-04-06T12:43:08;26.00;26.00;20.00
77320;PMS7003;66382;52.252;8.780;2023-04-06T12:45:35;24.33;24.33;17.00
77320;PMS7003;66382;52.252;8.780;2023-04-06T12:48:01;22.67;22.67;17.67
77320;PMS7003;66382;52.252;8.780;2023-04-06T12:50:27;23.33;23.33;16.67
77320;PMS7003;66382;52.252;8.780;2023-04-06T12:52:52;17.33;17.00;13.67
77320;PMS7003;66382;52.252;8.780;2023-04-06T12:55:18;25.00;25.00;16.33
77320;PMS7003;66382;52.252;8.780;2023-04-06T12:57:44;24.67;24.67;18.67
77320;PMS7003;66382;52.252;8.780;2023-04-06T13:00:10;28.00;28.00;20.67
77320;PMS7003;66382;52.252;8.780;2023-04-06T13:02:38;24.00;24.00;19.67
77320;PMS7003;66382;52.252;8.780;2023-04-06T13:05:04;26.75;26.75;18.50
77320;PMS7003;66382;52.252;8.780;2023-04-06T13:07:30;26.00;24.33;18.00
77320;PMS7003;66382;52.252;8.780;2023-04-06T13:09:56;24.67;24.67;19.67
77320;PMS7003;66382;52.252;8.780;2023-04-06T13:12:21;24.00;24.00;17.33
77320;PMS7003;66382;52.252;8.780;2023-04-06T13:14:47;17.67;17.67;14.67
77320;PMS7003;66382;52.252;8.780;2023-04-06T13:17:13;20.00;20.00;16.33
77320;PMS7003;66382;52.252;8.780;2023-04-06T13:19:40;23.00;22.00;15.33
77320;PMS7003;66382;52.252;8.780;2023-04-06T13:22:06;22.33;22.33;16.00
77320;PMS7003;66382;52.252;8.780;2023-04-06T13:24:31;22.33;22.33;16.67
77320;PMS7003;66382;52.252;8.780;2023-04-06T13:26:57;21.33;20.67;16.33
77320;PMS7003;66382;52.252;8.780;2023-04-06T13:29:23;22.00;22.00;16.33
77320;PMS7003;66382;52.252;8.780;2023-04-06T13:31:49;21.33;21.33;16.67
77320;PMS7003;66382;52.252;8.780;2023-04-06T13:34:14;22.00;22.00;17.33
77320;PMS7003;66382;52.252;8.780;2023-04-06T13:36:42;20.67;20.67;18.67
77320;PMS7003;66382;52.252;8.780;2023-04-06T13:39:07;23.00;23.00;17.33
77320;PMS7003;66382;52.252;8.780;2023-04-06T13:41:33;21.67;21.67;17.33